Bartom's Hill, United Kingdom
Current Conditions -  °F | °C
As of 8:20 PM on Thursday 23 Oct 2014 (Local Time) from EGHH Reporting Station
Drizzle Drizzle  
Wind Chill: 59°   Ceiling: 1500
Heat Index: 59°   Visibility: 5mi
Dew Point: 57°   Wind: 12mph
Humidity: 94%   Direction: 230°SW
Pressure: 30.03"   Gusts: NA
Location:  50.73°N, 2.02°W
Report Text: EGHH 231920Z 23010KT 8000 -DZ SCT006 BKN015 15/14 Q1017
Loading
Personal Weather Stations






























Interactive Weather Map New forecast layout! Learn more

10-Day Weather Forecast

Advertisements
Track Severe Weather on mobile